sensor_id;sensor_type;location;lat;lon;timestamp;P1;durP1;ratioP1;P2;durP2;ratioP2
9005;SDS011;62284;50.702;7.140;2022-11-20T00:01:05;21.05;;;19.45;;
9005;SDS011;62284;50.702;7.140;2022-11-20T00:03:33;21.52;;;19.58;;
9005;SDS011;62284;50.702;7.140;2022-11-20T00:06:00;20.73;;;19.13;;
9005;SDS011;62284;50.702;7.140;2022-11-20T00:08:27;20.55;;;19.02;;
9005;SDS011;62284;50.702;7.140;2022-11-20T00:10:54;19.63;;;18.13;;
9005;SDS011;62284;50.702;7.140;2022-11-20T00:13:21;20.42;;;18.80;;
9005;SDS011;62284;50.702;7.140;2022-11-20T00:15:50;20.17;;;18.67;;
9005;SDS011;62284;50.702;7.140;2022-11-20T00:18:23;20.80;;;19.30;;
9005;SDS011;62284;50.702;7.140;2022-11-20T00:20:50;21.30;;;19.70;;
9005;SDS011;62284;50.702;7.140;2022-11-20T00:23:17;20.10;;;18.50;;
9005;SDS011;62284;50.702;7.140;2022-11-20T00:25:43;21.57;;;19.97;;
9005;SDS011;62284;50.702;7.140;2022-11-20T00:28:10;21.33;;;19.63;;
9005;SDS011;62284;50.702;7.140;2022-11-20T00:30:37;21.45;;;19.75;;
9005;SDS011;62284;50.702;7.140;2022-11-20T00:33:05;19.90;;;18.30;;
9005;SDS011;62284;50.702;7.140;2022-11-20T00:35:32;22.60;;;20.90;;
9005;SDS011;62284;50.702;7.140;2022-11-20T00:37:59;21.63;;;20.03;;
9005;SDS011;62284;50.702;7.140;2022-11-20T00:40:26;20.77;;;19.17;;
9005;SDS011;62284;50.702;7.140;2022-11-20T00:42:53;21.50;;;19.83;;
9005;SDS011;62284;50.702;7.140;2022-11-20T00:45:20;21.63;;;20.00;;
9005;SDS011;62284;50.702;7.140;2022-11-20T00:47:47;22.13;;;20.40;;
9005;SDS011;62284;50.702;7.140;2022-11-20T00:50:15;21.73;;;20.03;;
9005;SDS011;62284;50.702;7.140;2022-11-20T00:52:42;21.60;;;19.90;;
9005;SDS011;62284;50.702;7.140;2022-11-20T00:55:09;21.07;;;19.47;;
9005;SDS011;62284;50.702;7.140;2022-11-20T00:57:35;22.60;;;20.80;;
9005;SDS011;62284;50.702;7.140;2022-11-20T01:00:03;22.35;;;20.65;;
9005;SDS011;62284;50.702;7.140;2022-11-20T01:02:31;20.33;;;18.90;;
9005;SDS011;62284;50.702;7.140;2022-11-20T01:04:57;22.17;;;20.57;;
9005;SDS011;62284;50.702;7.140;2022-11-20T01:07:26;21.90;;;20.20;;
9005;SDS011;62284;50.702;7.140;2022-11-20T01:09:52;21.83;;;20.23;;
9005;SDS011;62284;50.702;7.140;2022-11-20T01:12:19;21.57;;;19.87;;
9005;SDS011;62284;50.702;7.140;2022-11-20T01:14:46;20.55;;;19.05;;
9005;SDS011;62284;50.702;7.140;2022-11-20T01:17:14;21.57;;;19.87;;
9005;SDS011;62284;50.702;7.140;2022-11-20T01:19:40;21.33;;;19.73;;
9005;SDS011;62284;50.702;7.140;2022-11-20T01:22:07;21.57;;;19.83;;
9005;SDS011;62284;50.702;7.140;2022-11-20T01:24:35;22.08;;;20.38;;
9005;SDS011;62284;50.702;7.140;2022-11-20T01:27:02;22.03;;;20.33;;
9005;SDS011;62284;50.702;7.140;2022-11-20T01:29:29;21.45;;;19.80;;
9005;SDS011;62284;50.702;7.140;2022-11-20T01:31:56;20.83;;;19.27;;
9005;SDS011;62284;50.702;7.140;2022-11-20T01:34:23;21.57;;;19.87;;
9005;SDS011;62284;50.702;7.140;2022-11-20T01:36:50;19.83;;;18.43;;
9005;SDS011;62284;50.702;7.140;2022-11-20T01:39:18;20.60;;;19.00;;
9005;SDS011;62284;50.702;7.140;2022-11-20T01:41:48;22.35;;;20.40;;
9005;SDS011;62284;50.702;7.140;2022-11-20T01:44:45;21.90;;;20.20;;
9005;SDS011;62284;50.702;7.140;2022-11-20T01:47:20;20.93;;;19.33;;
9005;SDS011;62284;50.702;7.140;2022-11-20T01:49:56;20.70;;;19.13;;
9005;SDS011;62284;50.702;7.140;2022-11-20T01:52:27;20.63;;;19.00;;
9005;SDS011;62284;50.702;7.140;2022-11-20T01:55:00;20.85;;;19.27;;
9005;SDS011;62284;50.702;7.140;2022-11-20T01:57:32;21.50;;;19.90;;
9005;SDS011;62284;50.702;7.140;2022-11-20T02:00:01;21.97;;;20.33;;
9005;SDS011;62284;50.702;7.140;2022-11-20T02:02:31;21.23;;;19.63;;
9005;SDS011;62284;50.702;7.140;2022-11-20T02:05:00;21.27;;;19.67;;
9005;SDS011;62284;50.702;7.140;2022-11-20T02:07:34;20.83;;;19.27;;
9005;SDS011;62284;50.702;7.140;2022-11-20T02:10:01;21.73;;;20.03;;
9005;SDS011;62284;50.702;7.140;2022-11-20T02:12:28;22.20;;;20.40;;
9005;SDS011;62284;50.702;7.140;2022-11-20T02:15:14;20.98;;;19.38;;
9005;SDS011;62284;50.702;7.140;2022-11-20T02:17:41;20.00;;;18.50;;
9005;SDS011;62284;50.702;7.140;2022-11-20T02:20:08;21.15;;;19.55;;
9005;SDS011;62284;50.702;7.140;2022-11-20T02:22:36;22.13;;;20.42;;
9005;SDS011;62284;50.702;7.140;2022-11-20T02:25:09;20.73;;;19.23;;
9005;SDS011;62284;50.702;7.140;2022-11-20T02:27:37;21.00;;;19.40;;
9005;SDS011;62284;50.702;7.140;2022-11-20T02:30:04;22.90;;;21.20;;
9005;SDS011;62284;50.702;7.140;2022-11-20T02:32:33;20.83;;;19.33;;
9005;SDS011;62284;50.702;7.140;2022-11-20T02:35:06;22.42;;;20.73;;
9005;SDS011;62284;50.702;7.140;2022-11-20T02:37:34;21.77;;;20.08;;
9005;SDS011;62284;50.702;7.140;2022-11-20T02:40:05;21.77;;;20.17;;
9005;SDS011;62284;50.702;7.140;2022-11-20T02:42:34;21.30;;;19.73;;
9005;SDS011;62284;50.702;7.140;2022-11-20T02:45:01;21.88;;;20.23;;
9005;SDS011;62284;50.702;7.140;2022-11-20T02:47:28;21.23;;;19.63;;
9005;SDS011;62284;50.702;7.140;2022-11-20T02:49:55;21.92;;;20.20;;
9005;SDS011;62284;50.702;7.140;2022-11-20T02:52:22;21.23;;;19.63;;
9005;SDS011;62284;50.702;7.140;2022-11-20T02:54:49;21.35;;;19.75;;
9005;SDS011;62284;50.702;7.140;2022-11-20T02:57:16;21.55;;;19.85;;
9005;SDS011;62284;50.702;7.140;2022-11-20T02:59:44;21.50;;;19.90;;
9005;SDS011;62284;50.702;7.140;2022-11-20T03:02:11;21.95;;;20.25;;
9005;SDS011;62284;50.702;7.140;2022-11-20T03:04:38;21.63;;;20.02;;
9005;SDS011;62284;50.702;7.140;2022-11-20T03:07:04;21.23;;;19.52;;
9005;SDS011;62284;50.702;7.140;2022-11-20T03:09:31;21.25;;;19.65;;
9005;SDS011;62284;50.702;7.140;2022-11-20T03:11:58;21.15;;;19.52;;
9005;SDS011;62284;50.702;7.140;2022-11-20T03:14:25;21.07;;;19.47;;
9005;SDS011;62284;50.702;7.140;2022-11-20T03:16:53;22.13;;;20.37;;
9005;SDS011;62284;50.702;7.140;2022-11-20T03:19:21;21.73;;;20.13;;
9005;SDS011;62284;50.702;7.140;2022-11-20T03:21:48;22.02;;;20.33;;
9005;SDS011;62284;50.702;7.140;2022-11-20T03:24:14;22.60;;;20.90;;
9005;SDS011;62284;50.702;7.140;2022-11-20T03:26:42;22.70;;;20.95;;
9005;SDS011;62284;50.702;7.140;2022-11-20T03:29:08;22.90;;;21.10;;
9005;SDS011;62284;50.702;7.140;2022-11-20T03:31:36;21.60;;;19.93;;
9005;SDS011;62284;50.702;7.140;2022-11-20T03:34:06;22.65;;;20.75;;
9005;SDS011;62284;50.702;7.140;2022-11-20T03:36:34;21.92;;;20.23;;
9005;SDS011;62284;50.702;7.140;2022-11-20T03:39:03;23.40;;;21.55;;
9005;SDS011;62284;50.702;7.140;2022-11-20T03:41:30;21.90;;;20.13;;
9005;SDS011;62284;50.702;7.140;2022-11-20T03:44:02;22.13;;;20.43;;
9005;SDS011;62284;50.702;7.140;2022-11-20T03:46:30;22.80;;;21.10;;
9005;SDS011;62284;50.702;7.140;2022-11-20T03:48:58;24.47;;;22.47;;
9005;SDS011;62284;50.702;7.140;2022-11-20T03:51:26;24.50;;;22.60;;
9005;SDS011;62284;50.702;7.140;2022-11-20T03:53:56;24.03;;;22.03;;
9005;SDS011;62284;50.702;7.140;2022-11-20T03:56:24;22.53;;;20.73;;
9005;SDS011;62284;50.702;7.140;2022-11-20T03:58:52;23.23;;;21.37;;
9005;SDS011;62284;50.702;7.140;2022-11-20T04:01:20;23.40;;;21.40;;
9005;SDS011;62284;50.702;7.140;2022-11-20T04:03:48;24.00;;;22.10;;
9005;SDS011;62284;50.702;7.140;2022-11-20T04:06:18;23.93;;;22.03;;
9005;SDS011;62284;50.702;7.140;2022-11-20T04:08:47;22.87;;;20.97;;
9005;SDS011;62284;50.702;7.140;2022-11-20T04:11:16;24.80;;;22.70;;
9005;SDS011;62284;50.702;7.140;2022-11-20T04:13:45;24.43;;;22.43;;
9005;SDS011;62284;50.702;7.140;2022-11-20T04:16:14;24.03;;;22.10;;
9005;SDS011;62284;50.702;7.140;2022-11-20T04:18:40;24.00;;;22.00;;
9005;SDS011;62284;50.702;7.140;2022-11-20T04:21:08;24.05;;;22.08;;
9005;SDS011;62284;50.702;7.140;2022-11-20T04:23:35;24.37;;;22.47;;
9005;SDS011;62284;50.702;7.140;2022-11-20T04:26:05;24.40;;;22.43;;
9005;SDS011;62284;50.702;7.140;2022-11-20T04:28:33;24.20;;;22.20;;
9005;SDS011;62284;50.702;7.140;2022-11-20T04:31:04;24.33;;;22.33;;
9005;SDS011;62284;50.702;7.140;2022-11-20T04:33:31;23.40;;;21.55;;
9005;SDS011;62284;50.702;7.140;2022-11-20T04:36:01;22.83;;;21.03;;
9005;SDS011;62284;50.702;7.140;2022-11-20T04:38:29;22.97;;;21.07;;
9005;SDS011;62284;50.702;7.140;2022-11-20T04:40:57;23.00;;;21.10;;
9005;SDS011;62284;50.702;7.140;2022-11-20T04:43:26;24.73;;;22.73;;
9005;SDS011;62284;50.702;7.140;2022-11-20T04:45:53;23.73;;;21.83;;
9005;SDS011;62284;50.702;7.140;2022-11-20T04:48:21;24.70;;;22.70;;
9005;SDS011;62284;50.702;7.140;2022-11-20T04:50:48;23.63;;;21.83;;
9005;SDS011;62284;50.702;7.140;2022-11-20T04:53:15;23.75;;;21.85;;
9005;SDS011;62284;50.702;7.140;2022-11-20T04:55:42;23.25;;;21.35;;
9005;SDS011;62284;50.702;7.140;2022-11-20T04:58:09;22.53;;;20.83;;
9005;SDS011;62284;50.702;7.140;2022-11-20T05:00:37;25.13;;;23.13;;
9005;SDS011;62284;50.702;7.140;2022-11-20T05:03:04;24.10;;;22.08;;
9005;SDS011;62284;50.702;7.140;2022-11-20T05:05:32;24.43;;;22.43;;
9005;SDS011;62284;50.702;7.140;2022-11-20T05:08:00;24.48;;;22.42;;
9005;SDS011;62284;50.702;7.140;2022-11-20T05:10:27;25.33;;;23.13;;
9005;SDS011;62284;50.702;7.140;2022-11-20T05:12:54;23.80;;;21.77;;
9005;SDS011;62284;50.702;7.140;2022-11-20T05:15:21;25.00;;;22.90;;
9005;SDS011;62284;50.702;7.140;2022-11-20T05:17:49;24.27;;;22.30;;
9005;SDS011;62284;50.702;7.140;2022-11-20T05:20:16;24.40;;;22.40;;
9005;SDS011;62284;50.702;7.140;2022-11-20T05:22:44;23.83;;;21.85;;
9005;SDS011;62284;50.702;7.140;2022-11-20T05:25:11;25.13;;;23.03;;
9005;SDS011;62284;50.702;7.140;2022-11-20T05:27:38;26.15;;;24.00;;
9005;SDS011;62284;50.702;7.140;2022-11-20T05:30:06;21.07;;;19.27;;
9005;SDS011;62284;50.702;7.140;2022-11-20T05:32:34;25.23;;;23.02;;
9005;SDS011;62284;50.702;7.140;2022-11-20T05:35:02;25.40;;;23.17;;
9005;SDS011;62284;50.702;7.140;2022-11-20T05:37:29;25.03;;;22.93;;
9005;SDS011;62284;50.702;7.140;2022-11-20T05:39:56;25.63;;;23.57;;
9005;SDS011;62284;50.702;7.140;2022-11-20T05:42:23;26.87;;;24.57;;
9005;SDS011;62284;50.702;7.140;2022-11-20T05:44:59;26.80;;;24.50;;
9005;SDS011;62284;50.702;7.140;2022-11-20T05:47:27;25.48;;;23.35;;
9005;SDS011;62284;50.702;7.140;2022-11-20T05:49:54;26.57;;;24.27;;
9005;SDS011;62284;50.702;7.140;2022-11-20T05:52:22;25.80;;;23.60;;
9005;SDS011;62284;50.702;7.140;2022-11-20T05:54:49;26.03;;;23.93;;
9005;SDS011;62284;50.702;7.140;2022-11-20T05:57:16;26.60;;;24.40;;
9005;SDS011;62284;50.702;7.140;2022-11-20T05:59:43;27.67;;;25.27;;
9005;SDS011;62284;50.702;7.140;2022-11-20T06:02:10;25.60;;;23.45;;
9005;SDS011;62284;50.702;7.140;2022-11-20T06:04:37;25.10;;;23.00;;
9005;SDS011;62284;50.702;7.140;2022-11-20T06:07:04;25.97;;;23.47;;
9005;SDS011;62284;50.702;7.140;2022-11-20T06:09:33;20.97;;;19.23;;
9005;SDS011;62284;50.702;7.140;2022-11-20T06:12:00;25.50;;;23.50;;
9005;SDS011;62284;50.702;7.140;2022-11-20T06:14:26;25.30;;;23.20;;
9005;SDS011;62284;50.702;7.140;2022-11-20T06:16:53;25.47;;;23.37;;
9005;SDS011;62284;50.702;7.140;2022-11-20T06:19:20;24.67;;;22.77;;
9005;SDS011;62284;50.702;7.140;2022-11-20T06:21:47;26.87;;;24.67;;
9005;SDS011;62284;50.702;7.140;2022-11-20T06:24:14;25.87;;;23.77;;
9005;SDS011;62284;50.702;7.140;2022-11-20T06:26:43;26.47;;;24.37;;
9005;SDS011;62284;50.702;7.140;2022-11-20T06:29:10;27.30;;;24.90;;
9005;SDS011;62284;50.702;7.140;2022-11-20T06:31:37;26.87;;;24.67;;
9005;SDS011;62284;50.702;7.140;2022-11-20T06:34:04;27.60;;;25.30;;
9005;SDS011;62284;50.702;7.140;2022-11-20T06:36:31;28.43;;;26.03;;
9005;SDS011;62284;50.702;7.140;2022-11-20T06:38:59;28.83;;;26.27;;
9005;SDS011;62284;50.702;7.140;2022-11-20T06:41:25;25.57;;;23.47;;
9005;SDS011;62284;50.702;7.140;2022-11-20T06:43:54;27.30;;;25.03;;
9005;SDS011;62284;50.702;7.140;2022-11-20T06:46:21;27.73;;;25.33;;
9005;SDS011;62284;50.702;7.140;2022-11-20T06:48:48;27.87;;;25.37;;
9005;SDS011;62284;50.702;7.140;2022-11-20T06:51:16;26.87;;;24.57;;
9005;SDS011;62284;50.702;7.140;2022-11-20T06:53:43;26.83;;;24.53;;
9005;SDS011;62284;50.702;7.140;2022-11-20T06:56:10;26.83;;;24.47;;
9005;SDS011;62284;50.702;7.140;2022-11-20T06:58:37;28.13;;;25.63;;
9005;SDS011;62284;50.702;7.140;2022-11-20T07:01:06;29.63;;;26.92;;
9005;SDS011;62284;50.702;7.140;2022-11-20T07:03:35;28.00;;;25.65;;
9005;SDS011;62284;50.702;7.140;2022-11-20T07:06:02;27.02;;;24.80;;
9005;SDS011;62284;50.702;7.140;2022-11-20T07:08:29;27.60;;;25.20;;
9005;SDS011;62284;50.702;7.140;2022-11-20T07:10:57;24.97;;;22.87;;
9005;SDS011;62284;50.702;7.140;2022-11-20T07:13:25;23.02;;;21.13;;
9005;SDS011;62284;50.702;7.140;2022-11-20T07:15:52;22.75;;;20.85;;
9005;SDS011;62284;50.702;7.140;2022-11-20T07:18:20;22.58;;;20.77;;
9005;SDS011;62284;50.702;7.140;2022-11-20T07:20:47;22.55;;;20.70;;
9005;SDS011;62284;50.702;7.140;2022-11-20T07:23:14;22.00;;;20.20;;
9005;SDS011;62284;50.702;7.140;2022-11-20T07:25:41;23.02;;;21.15;;
9005;SDS011;62284;50.702;7.140;2022-11-20T07:28:08;21.97;;;20.27;;
9005;SDS011;62284;50.702;7.140;2022-11-20T07:30:35;22.30;;;20.50;;
9005;SDS011;62284;50.702;7.140;2022-11-20T07:33:03;23.02;;;21.10;;
9005;SDS011;62284;50.702;7.140;2022-11-20T07:35:31;28.17;;;25.80;;
9005;SDS011;62284;50.702;7.140;2022-11-20T07:37:58;31.50;;;28.60;;
9005;SDS011;62284;50.702;7.140;2022-11-20T07:40:25;24.90;;;22.75;;
9005;SDS011;62284;50.702;7.140;2022-11-20T07:42:52;25.23;;;23.02;;
9005;SDS011;62284;50.702;7.140;2022-11-20T07:45:21;21.20;;;19.50;;
9005;SDS011;62284;50.702;7.140;2022-11-20T07:47:49;20.20;;;18.70;;
9005;SDS011;62284;50.702;7.140;2022-11-20T07:50:17;20.30;;;18.70;;
9005;SDS011;62284;50.702;7.140;2022-11-20T07:52:46;20.00;;;18.40;;
9005;SDS011;62284;50.702;7.140;2022-11-20T07:55:13;20.33;;;18.73;;
9005;SDS011;62284;50.702;7.140;2022-11-20T07:57:41;21.07;;;19.43;;
9005;SDS011;62284;50.702;7.140;2022-11-20T08:00:08;20.42;;;18.63;;
9005;SDS011;62284;50.702;7.140;2022-11-20T08:02:37;21.13;;;19.43;;
9005;SDS011;62284;50.702;7.140;2022-11-20T08:05:05;21.27;;;19.57;;
9005;SDS011;62284;50.702;7.140;2022-11-20T08:07:35;21.38;;;19.60;;
9005;SDS011;62284;50.702;7.140;2022-11-20T08:10:04;21.42;;;19.63;;
9005;SDS011;62284;50.702;7.140;2022-11-20T08:12:32;21.37;;;19.67;;
9005;SDS011;62284;50.702;7.140;2022-11-20T08:15:16;21.15;;;19.50;;
9005;SDS011;62284;50.702;7.140;2022-11-20T08:17:43;21.52;;;19.73;;
9005;SDS011;62284;50.702;7.140;2022-11-20T08:20:10;22.55;;;20.55;;
9005;SDS011;62284;50.702;7.140;2022-11-20T08:22:37;21.53;;;19.73;;
9005;SDS011;62284;50.702;7.140;2022-11-20T08:25:05;21.73;;;20.00;;
9005;SDS011;62284;50.702;7.140;2022-11-20T08:27:33;19.95;;;18.35;;
9005;SDS011;62284;50.702;7.140;2022-11-20T08:29:59;21.02;;;19.35;;
9005;SDS011;62284;50.702;7.140;2022-11-20T08:32:26;21.27;;;19.58;;
9005;SDS011;62284;50.702;7.140;2022-11-20T08:34:53;21.27;;;19.48;;
9005;SDS011;62284;50.702;7.140;2022-11-20T08:37:20;22.20;;;20.30;;
9005;SDS011;62284;50.702;7.140;2022-11-20T08:39:47;20.10;;;18.50;;
9005;SDS011;62284;50.702;7.140;2022-11-20T08:42:15;22.38;;;20.67;;
9005;SDS011;62284;50.702;7.140;2022-11-20T08:44:42;21.20;;;19.52;;
9005;SDS011;62284;50.702;7.140;2022-11-20T08:47:09;21.37;;;19.67;;
9005;SDS011;62284;50.702;7.140;2022-11-20T08:49:35;22.08;;;20.38;;
9005;SDS011;62284;50.702;7.140;2022-11-20T08:52:02;22.60;;;20.75;;
9005;SDS011;62284;50.702;7.140;2022-11-20T08:54:29;22.20;;;20.48;;
9005;SDS011;62284;50.702;7.140;2022-11-20T08:56:56;23.08;;;21.17;;
9005;SDS011;62284;50.702;7.140;2022-11-20T08:59:24;21.83;;;20.10;;
9005;SDS011;62284;50.702;7.140;2022-11-20T09:01:51;22.35;;;20.55;;
9005;SDS011;62284;50.702;7.140;2022-11-20T09:04:18;22.67;;;20.90;;
9005;SDS011;62284;50.702;7.140;2022-11-20T09:06:45;22.13;;;20.35;;
9005;SDS011;62284;50.702;7.140;2022-11-20T09:09:15;22.17;;;20.33;;
9005;SDS011;62284;50.702;7.140;2022-11-20T09:11:43;25.48;;;23.38;;
9005;SDS011;62284;50.702;7.140;2022-11-20T09:14:10;24.98;;;22.92;;
9005;SDS011;62284;50.702;7.140;2022-11-20T09:16:38;23.88;;;21.98;;
9005;SDS011;62284;50.702;7.140;2022-11-20T09:19:05;22.90;;;21.00;;
9005;SDS011;62284;50.702;7.140;2022-11-20T09:21:32;23.52;;;21.63;;
9005;SDS011;62284;50.702;7.140;2022-11-20T09:23:58;23.13;;;21.15;;
9005;SDS011;62284;50.702;7.140;2022-11-20T09:26:25;22.23;;;20.33;;
9005;SDS011;62284;50.702;7.140;2022-11-20T09:28:52;23.85;;;21.95;;
9005;SDS011;62284;50.702;7.140;2022-11-20T09:31:21;23.55;;;21.67;;
9005;SDS011;62284;50.702;7.140;2022-11-20T09:33:50;24.08;;;22.17;;
9005;SDS011;62284;50.702;7.140;2022-11-20T09:36:17;23.77;;;21.77;;
9005;SDS011;62284;50.702;7.140;2022-11-20T09:38:44;25.08;;;22.98;;
9005;SDS011;62284;50.702;7.140;2022-11-20T09:41:17;23.30;;;21.38;;
9005;SDS011;62284;50.702;7.140;2022-11-20T09:43:57;23.77;;;21.88;;
9005;SDS011;62284;50.702;7.140;2022-11-20T09:46:33;24.52;;;22.48;;
9005;SDS011;62284;50.702;7.140;2022-11-20T09:49:14;21.93;;;20.13;;
9005;SDS011;62284;50.702;7.140;2022-11-20T09:51:51;22.33;;;20.48;;
9005;SDS011;62284;50.702;7.140;2022-11-20T09:54:25;22.10;;;20.20;;
9005;SDS011;62284;50.702;7.140;2022-11-20T09:56:56;22.08;;;20.10;;
9005;SDS011;62284;50.702;7.140;2022-11-20T09:59:28;18.45;;;16.95;;
9005;SDS011;62284;50.702;7.140;2022-11-20T10:01:59;18.50;;;17.05;;
9005;SDS011;62284;50.702;7.140;2022-11-20T10:04:29;18.08;;;16.55;;
9005;SDS011;62284;50.702;7.140;2022-11-20T10:07:00;18.67;;;17.08;;
9005;SDS011;62284;50.702;7.140;2022-11-20T10:09:34;18.90;;;17.40;;
9005;SDS011;62284;50.702;7.140;2022-11-20T10:12:05;18.77;;;17.27;;
9005;SDS011;62284;50.702;7.140;2022-11-20T10:14:42;16.95;;;15.55;;
9005;SDS011;62284;50.702;7.140;2022-11-20T10:17:21;16.52;;;15.13;;
9005;SDS011;62284;50.702;7.140;2022-11-20T10:20:14;16.38;;;15.05;;
9005;SDS011;62284;50.702;7.140;2022-11-20T10:22:56;16.90;;;15.50;;
9005;SDS011;62284;50.702;7.140;2022-11-20T10:25:38;18.23;;;16.52;;
9005;SDS011;62284;50.702;7.140;2022-11-20T10:28:22;17.30;;;15.90;;
9005;SDS011;62284;50.702;7.140;2022-11-20T10:30:56;16.30;;;15.00;;
9005;SDS011;62284;50.702;7.140;2022-11-20T10:33:26;16.65;;;15.30;;
9005;SDS011;62284;50.702;7.140;2022-11-20T10:36:00;16.48;;;15.20;;
9005;SDS011;62284;50.702;7.140;2022-11-20T10:38:34;17.17;;;15.80;;
9005;SDS011;62284;50.702;7.140;2022-11-20T10:41:05;17.90;;;16.40;;
9005;SDS011;62284;50.702;7.140;2022-11-20T10:43:52;16.98;;;15.57;;
9005;SDS011;62284;50.702;7.140;2022-11-20T10:46:26;17.23;;;15.88;;
9005;SDS011;62284;50.702;7.140;2022-11-20T10:49:02;16.45;;;15.13;;
9005;SDS011;62284;50.702;7.140;2022-11-20T10:51:39;19.20;;;17.60;;
9005;SDS011;62284;50.702;7.140;2022-11-20T10:54:17;17.55;;;16.10;;
9005;SDS011;62284;50.702;7.140;2022-11-20T10:56:50;16.00;;;14.70;;
9005;SDS011;62284;50.702;7.140;2022-11-20T10:59:28;17.05;;;15.65;;
9005;SDS011;62284;50.702;7.140;2022-11-20T11:02:22;17.25;;;15.85;;
9005;SDS011;62284;50.702;7.140;2022-11-20T11:04:50;18.45;;;16.95;;
9005;SDS011;62284;50.702;7.140;2022-11-20T11:07:20;17.20;;;15.77;;
9005;SDS011;62284;50.702;7.140;2022-11-20T11:09:51;18.10;;;16.52;;
9005;SDS011;62284;50.702;7.140;2022-11-20T11:12:19;17.63;;;16.13;;
9005;SDS011;62284;50.702;7.140;2022-11-20T11:14:48;18.52;;;17.02;;
9005;SDS011;62284;50.702;7.140;2022-11-20T11:17:26;18.67;;;17.17;;
9005;SDS011;62284;50.702;7.140;2022-11-20T11:22:46;20.40;;;18.60;;
9005;SDS011;62284;50.702;7.140;2022-11-20T11:25:21;20.10;;;18.40;;
9005;SDS011;62284;50.702;7.140;2022-11-20T11:27:50;18.40;;;16.90;;
9005;SDS011;62284;50.702;7.140;2022-11-20T11:30:18;20.48;;;18.88;;
9005;SDS011;62284;50.702;7.140;2022-11-20T11:32:46;19.70;;;18.10;;
9005;SDS011;62284;50.702;7.140;2022-11-20T11:35:23;19.60;;;17.90;;
9005;SDS011;62284;50.702;7.140;2022-11-20T11:37:53;20.17;;;18.48;;
9005;SDS011;62284;50.702;7.140;2022-11-20T11:40:28;20.50;;;18.73;;
9005;SDS011;62284;50.702;7.140;2022-11-20T11:42:59;20.40;;;18.67;;
9005;SDS011;62284;50.702;7.140;2022-11-20T11:45:28;19.83;;;18.08;;
9005;SDS011;62284;50.702;7.140;2022-11-20T11:47:55;19.30;;;17.70;;
9005;SDS011;62284;50.702;7.140;2022-11-20T11:50:24;19.20;;;17.58;;
9005;SDS011;62284;50.702;7.140;2022-11-20T11:52:55;19.35;;;17.75;;
9005;SDS011;62284;50.702;7.140;2022-11-20T11:55:29;18.98;;;17.38;;
9005;SDS011;62284;50.702;7.140;2022-11-20T11:58:01;18.92;;;17.23;;
9005;SDS011;62284;50.702;7.140;2022-11-20T12:00:37;18.10;;;16.60;;
9005;SDS011;62284;50.702;7.140;2022-11-20T12:03:12;18.40;;;16.80;;
9005;SDS011;62284;50.702;7.140;2022-11-20T12:05:43;18.45;;;16.95;;
9005;SDS011;62284;50.702;7.140;2022-11-20T12:08:15;19.23;;;17.52;;
9005;SDS011;62284;50.702;7.140;2022-11-20T12:10:48;17.80;;;16.40;;
9005;SDS011;62284;50.702;7.140;2022-11-20T12:13:26;17.98;;;16.48;;
9005;SDS011;62284;50.702;7.140;2022-11-20T12:16:07;17.70;;;16.27;;
9005;SDS011;62284;50.702;7.140;2022-11-20T12:18:38;18.08;;;16.58;;
9005;SDS011;62284;50.702;7.140;2022-11-20T12:21:18;17.83;;;16.27;;
9005;SDS011;62284;50.702;7.140;2022-11-20T12:23:51;17.17;;;15.68;;
9005;SDS011;62284;50.702;7.140;2022-11-20T12:26:29;18.83;;;17.23;;
9005;SDS011;62284;50.702;7.140;2022-11-20T12:29:08;18.60;;;17.10;;
9005;SDS011;62284;50.702;7.140;2022-11-20T12:31:47;17.77;;;16.27;;
9005;SDS011;62284;50.702;7.140;2022-11-20T12:34:32;18.58;;;17.08;;
9005;SDS011;62284;50.702;7.140;2022-11-20T12:37:10;18.25;;;16.75;;
9005;SDS011;62284;50.702;7.140;2022-11-20T12:39:48;17.77;;;16.27;;
9005;SDS011;62284;50.702;7.140;2022-11-20T12:42:20;16.48;;;15.07;;
9005;SDS011;62284;50.702;7.140;2022-11-20T12:45:23;16.38;;;14.98;;
9005;SDS011;62284;50.702;7.140;2022-11-20T12:48:16;16.88;;;15.55;;
9005;SDS011;62284;50.702;7.140;2022-11-20T12:51:00;15.95;;;14.65;;
9005;SDS011;62284;50.702;7.140;2022-11-20T12:53:42;16.08;;;14.77;;
9005;SDS011;62284;50.702;7.140;2022-11-20T12:56:19;16.50;;;15.10;;
9005;SDS011;62284;50.702;7.140;2022-11-20T12:58:58;17.58;;;16.08;;
9005;SDS011;62284;50.702;7.140;2022-11-20T13:01:35;15.73;;;14.52;;
9005;SDS011;62284;50.702;7.140;2022-11-20T13:04:14;17.27;;;15.82;;
9005;SDS011;62284;50.702;7.140;2022-11-20T13:06:50;16.85;;;15.45;;
9005;SDS011;62284;50.702;7.140;2022-11-20T13:09:18;17.48;;;16.00;;
9005;SDS011;62284;50.702;7.140;2022-11-20T13:11:50;16.02;;;14.82;;
9005;SDS011;62284;50.702;7.140;2022-11-20T13:14:26;16.23;;;14.93;;
9005;SDS011;62284;50.702;7.140;2022-11-20T13:17:02;16.45;;;15.05;;
9005;SDS011;62284;50.702;7.140;2022-11-20T13:19:32;15.73;;;14.32;;
9005;SDS011;62284;50.702;7.140;2022-11-20T13:22:00;15.77;;;14.48;;
9005;SDS011;62284;50.702;7.140;2022-11-20T13:24:27;15.98;;;14.68;;
9005;SDS011;62284;50.702;7.140;2022-11-20T13:27:17;14.68;;;13.52;;
9005;SDS011;62284;50.702;7.140;2022-11-20T13:29:46;16.10;;;14.80;;
9005;SDS011;62284;50.702;7.140;2022-11-20T13:32:25;16.23;;;14.88;;
9005;SDS011;62284;50.702;7.140;2022-11-20T13:34:57;14.85;;;13.65;;
9005;SDS011;62284;50.702;7.140;2022-11-20T13:37:30;14.88;;;13.70;;
9005;SDS011;62284;50.702;7.140;2022-11-20T13:40:05;15.85;;;14.55;;
9005;SDS011;62284;50.702;7.140;2022-11-20T13:42:43;16.27;;;14.88;;
9005;SDS011;62284;50.702;7.140;2022-11-20T13:45:25;16.50;;;15.18;;
9005;SDS011;62284;50.702;7.140;2022-11-20T13:47:53;20.95;;;19.17;;
9005;SDS011;62284;50.702;7.140;2022-11-20T13:50:23;17.17;;;15.75;;
9005;SDS011;62284;50.702;7.140;2022-11-20T13:53:07;15.48;;;14.27;;
9005;SDS011;62284;50.702;7.140;2022-11-20T13:55:46;15.52;;;14.25;;
9005;SDS011;62284;50.702;7.140;2022-11-20T13:58:26;15.70;;;14.48;;
9005;SDS011;62284;50.702;7.140;2022-11-20T14:01:07;16.00;;;14.70;;
9005;SDS011;62284;50.702;7.140;2022-11-20T14:03:36;15.18;;;14.00;;
9005;SDS011;62284;50.702;7.140;2022-11-20T14:06:05;15.02;;;13.82;;
9005;SDS011;62284;50.702;7.140;2022-11-20T14:08:39;15.15;;;13.95;;
9005;SDS011;62284;50.702;7.140;2022-11-20T14:11:12;15.55;;;14.35;;
9005;SDS011;62284;50.702;7.140;2022-11-20T14:13:53;14.45;;;13.35;;
9005;SDS011;62284;50.702;7.140;2022-11-20T14:16:22;15.07;;;13.85;;
9005;SDS011;62284;50.702;7.140;2022-11-20T14:18:50;15.00;;;13.80;;
9005;SDS011;62284;50.702;7.140;2022-11-20T14:21:21;14.95;;;13.75;;
9005;SDS011;62284;50.702;7.140;2022-11-20T14:23:51;13.13;;;12.10;;
9005;SDS011;62284;50.702;7.140;2022-11-20T14:26:19;14.35;;;13.15;;
9005;SDS011;62284;50.702;7.140;2022-11-20T14:28:48;14.82;;;13.52;;
9005;SDS011;62284;50.702;7.140;2022-11-20T14:31:21;14.98;;;13.57;;
9005;SDS011;62284;50.702;7.140;2022-11-20T14:33:51;13.57;;;12.57;;
9005;SDS011;62284;50.702;7.140;2022-11-20T14:36:20;13.90;;;12.80;;
9005;SDS011;62284;50.702;7.140;2022-11-20T14:38:48;13.60;;;12.50;;
9005;SDS011;62284;50.702;7.140;2022-11-20T14:41:17;13.82;;;12.75;;
9005;SDS011;62284;50.702;7.140;2022-11-20T14:43:46;13.98;;;12.75;;
9005;SDS011;62284;50.702;7.140;2022-11-20T14:46:16;13.85;;;12.75;;
9005;SDS011;62284;50.702;7.140;2022-11-20T14:48:45;13.65;;;12.60;;
9005;SDS011;62284;50.702;7.140;2022-11-20T14:51:23;14.52;;;13.30;;
9005;SDS011;62284;50.702;7.140;2022-11-20T14:53:54;14.90;;;13.50;;